Time;durP1;ratioP1;P1;durP2;ratioP2;P2;SDS_P1;SDS_P2;PMS_P1;PMS_P2;Temp;Humidity;BMP_temperature;BMP_pressure;BME280_temperature;BME280_humidity;BME280_pressure;Samples;Min_cycle;Max_cycle;Signal;HPM_P1;HPM_P2
2022/09/13 00:01:47;;;;;;;373.77;175.17;;;;;;;;;;5046525;28;20202;-48
2022/09/13 00:04:13;;;;;;;363.27;170.80;;;;;;;;;;5046455;28;20207;-47
2022/09/13 00:06:39;;;;;;;332.53;157.90;;;;;;;;;;5047659;28;20265;-48
2022/09/13 00:09:04;;;;;;;362.07;172.50;;;;;;;;;;5047670;28;20180;-48
2022/09/13 00:11:30;;;;;;;363.73;175.27;;;;;;;;;;5047260;28;20203;-47
2022/09/13 00:13:57;;;;;;;357.70;172.67;;;;;;;;;;5047473;28;20276;-47
2022/09/13 00:16:24;;;;;;;350.50;167.00;;;;;;;;;;5046074;28;20172;-48
2022/09/13 00:18:51;;;;;;;366.10;173.00;;;;;;;;;;5046605;28;20293;-48
2022/09/13 00:21:18;;;;;;;369.03;171.77;;;;;;;;;;5045409;28;20520;-47
2022/09/13 00:23:44;;;;;;;366.10;172.77;;;;;;;;;;5044364;28;20168;-47
2022/09/13 00:26:13;;;;;;;347.80;169.13;;;;;;;;;;5046984;28;20180;-47
2022/09/13 00:28:39;;;;;;;359.20;170.60;;;;;;;;;;5047338;28;20602;-47
2022/09/13 00:31:06;;;;;;;383.30;186.30;;;;;;;;;;5046398;28;20176;-47
2022/09/13 00:33:32;;;;;;;375.77;179.97;;;;;;;;;;5045140;28;20199;-47
2022/09/13 00:35:58;;;;;;;375.97;181.17;;;;;;;;;;5045911;28;20576;-48
2022/09/13 00:38:24;;;;;;;350.77;168.53;;;;;;;;;;5047166;28;20172;-48
2022/09/13 00:40:50;;;;;;;362.80;173.90;;;;;;;;;;5045541;28;20282;-47
2022/09/13 00:43:20;;;;;;;351.83;170.53;;;;;;;;;;5044652;28;20618;-47
2022/09/13 00:45:47;;;;;;;355.70;168.77;;;;;;;;;;5044958;28;20196;-48
2022/09/13 00:48:23;;;;;;;349.30;166.93;;;;;;;;;;5045630;28;20179;-47
2022/09/13 00:50:53;;;;;;;348.37;170.50;;;;;;;;;;5045454;28;20526;-47
2022/09/13 00:53:21;;;;;;;348.70;166.40;;;;;;;;;;5046146;28;20700;-48
2022/09/13 00:55:56;;;;;;;365.83;173.00;;;;;;;;;;5045395;28;20199;-47
2022/09/13 00:58:28;;;;;;;347.53;165.20;;;;;;;;;;5047101;28;20653;-47
2022/09/13 01:00:55;;;;;;;366.23;173.43;;;;;;;;;;5044934;28;20210;-47
2022/09/13 01:03:23;;;;;;;355.03;168.30;;;;;;;;;;5046173;28;20532;-48
2022/09/13 01:05:51;;;;;;;350.20;168.03;;;;;;;;;;5046511;28;20222;-48
2022/09/13 01:08:23;;;;;;;368.90;181.40;;;;;;;;;;5043352;28;20349;-47
2022/09/13 01:10:50;;;;;;;345.60;168.77;;;;;;;;;;5044510;28;20217;-48
2022/09/13 01:13:20;;;;;;;343.13;165.77;;;;;;;;;;5044839;28;20248;-48
2022/09/13 01:15:47;;;;;;;355.10;170.50;;;;;;;;;;5044804;28;20216;-47
2022/09/13 01:18:13;;;;;;;356.53;170.30;;;;;;;;;;5046809;28;20274;-47
2022/09/13 01:20:46;;;;;;;363.80;172.80;;;;;;;;;;5045143;28;20620;-47
2022/09/13 01:23:14;;;;;;;377.20;180.37;;;;;;;;;;5044789;28;20194;-47
2022/09/13 01:26:02;;;;;;;357.97;169.33;;;;;;;;;;5045908;28;20195;-47
2022/09/13 01:28:54;;;;;;;331.63;160.73;;;;;;;;;;5046952;28;20626;-47
2022/09/13 01:31:34;;;;;;;321.77;155.43;;;;;;;;;;5044997;28;20590;-47
2022/09/13 01:34:30;;;;;;;384.53;183.23;;;;;;;;;;5044050;28;20199;-48
2022/09/13 01:36:58;;;;;;;350.23;164.73;;;;;;;;;;5040669;28;20187;-47
2022/09/13 01:39:36;;;;;;;369.03;171.40;;;;;;;;;;5045947;28;20512;-48
2022/09/13 01:42:15;;;;;;;374.73;178.13;;;;;;;;;;5044426;28;20247;-46
2022/09/13 01:44:47;;;;;;;359.97;170.20;;;;;;;;;;5044840;28;20279;-47
2022/09/13 01:47:23;;;;;;;349.57;165.10;;;;;;;;;;5044794;28;20176;-47
2022/09/13 01:49:57;;;;;;;366.30;170.97;;;;;;;;;;5047854;28;20237;-48
2022/09/13 01:52:29;;;;;;;361.27;169.47;;;;;;;;;;5048647;28;20675;-47
2022/09/13 01:54:58;;;;;;;377.90;179.73;;;;;;;;;;5047602;28;20222;-47
2022/09/13 01:57:24;;;;;;;368.70;174.23;;;;;;;;;;5047777;28;20659;-47
2022/09/13 01:59:53;;;;;;;353.17;167.40;;;;;;;;;;5048557;28;20285;-47
2022/09/13 02:02:22;;;;;;;372.63;174.30;;;;;;;;;;5047868;28;20206;-48
2022/09/13 02:04:53;;;;;;;362.20;171.23;;;;;;;;;;5049163;28;20211;-48
2022/09/13 02:07:23;;;;;;;375.93;175.27;;;;;;;;;;5047758;28;20164;-48
2022/09/13 02:09:50;;;;;;;372.13;172.87;;;;;;;;;;5047963;28;20191;-47
2022/09/13 02:12:19;;;;;;;346.07;163.00;;;;;;;;;;5047804;28;20203;-47
2022/09/13 02:14:49;;;;;;;360.50;170.53;;;;;;;;;;5048079;28;20196;-48
2022/09/13 02:17:22;;;;;;;370.60;170.83;;;;;;;;;;5049426;28;20248;-48
2022/09/13 02:19:56;;;;;;;368.40;171.17;;;;;;;;;;5048082;28;20172;-47
2022/09/13 02:22:26;;;;;;;360.57;170.57;;;;;;;;;;5047655;28;20163;-48
2022/09/13 02:24:54;;;;;;;366.53;175.00;;;;;;;;;;5048570;28;20292;-47
2022/09/13 02:27:24;;;;;;;354.33;163.73;;;;;;;;;;5047620;28;20180;-48
2022/09/13 02:29:51;;;;;;;365.70;170.13;;;;;;;;;;5047897;28;20226;-48
2022/09/13 02:32:17;;;;;;;334.20;157.07;;;;;;;;;;5049181;28;20199;-47
2022/09/13 02:34:46;;;;;;;377.03;179.47;;;;;;;;;;5049204;28;20195;-47
2022/09/13 02:37:12;;;;;;;387.83;183.87;;;;;;;;;;5048040;28;20176;-47
2022/09/13 02:39:45;;;;;;;362.70;167.27;;;;;;;;;;5048876;28;20207;-47
2022/09/13 02:42:17;;;;;;;340.37;158.67;;;;;;;;;;5046917;28;20171;-47
2022/09/13 02:44:44;;;;;;;367.83;173.90;;;;;;;;;;5049205;28;20207;-48
2022/09/13 02:47:13;;;;;;;375.63;175.63;;;;;;;;;;5046931;28;20245;-47
2022/09/13 02:49:51;;;;;;;346.30;160.73;;;;;;;;;;5047330;28;20376;-47
2022/09/13 02:52:22;;;;;;;356.87;167.03;;;;;;;;;;5047563;28;20527;-48
2022/09/13 02:55:00;;;;;;;361.87;168.30;;;;;;;;;;5047412;28;20640;-48
2022/09/13 02:57:32;;;;;;;360.60;165.20;;;;;;;;;;5048901;28;20594;-47
2022/09/13 02:59:59;;;;;;;374.27;171.90;;;;;;;;;;5047702;28;20644;-47
2022/09/13 03:02:26;;;;;;;407.00;179.47;;;;;;;;;;5039166;23;20259;-50
2022/09/13 03:04:52;;;;;;;343.53;151.53;;;;;;;;;;5009479;28;20232;-50
2022/09/13 03:07:18;;;;;;;341.93;150.83;;;;;;;;;;5011301;28;20216;-51
2022/09/13 03:09:53;;;;;;;337.20;149.53;;;;;;;;;;5010927;28;20241;-50
2022/09/13 03:12:37;;;;;;;357.33;157.20;;;;;;;;;;5010741;28;20208;-50
2022/09/13 03:15:22;;;;;;;350.97;151.57;;;;;;;;;;5010460;28;20240;-51
2022/09/13 03:18:06;;;;;;;344.37;148.70;;;;;;;;;;5010913;28;20284;-51
2022/09/13 03:20:51;;;;;;;324.23;144.03;;;;;;;;;;5011072;28;20623;-51
2022/09/13 03:23:24;;;;;;;360.00;156.80;;;;;;;;;;5010582;28;20185;-51
2022/09/13 03:25:53;;;;;;;344.57;149.53;;;;;;;;;;5010604;28;20197;-51
2022/09/13 03:28:25;;;;;;;341.60;151.43;;;;;;;;;;5010463;28;20272;-51
2022/09/13 03:31:03;;;;;;;350.27;152.93;;;;;;;;;;5010301;28;20177;-51
2022/09/13 03:33:33;;;;;;;354.77;159.07;;;;;;;;;;5010523;28;20255;-51
2022/09/13 03:36:13;;;;;;;344.33;152.73;;;;;;;;;;5010710;28;20657;-50
2022/09/13 03:38:41;;;;;;;336.93;150.50;;;;;;;;;;5010525;28;20271;-51
2022/09/13 03:41:07;;;;;;;322.57;144.93;;;;;;;;;;5010280;28;20264;-51
2022/09/13 03:43:36;;;;;;;345.30;155.10;;;;;;;;;;5010033;28;20209;-50
2022/09/13 03:46:22;;;;;;;340.10;150.70;;;;;;;;;;5010091;28;20177;-50
2022/09/13 03:48:49;;;;;;;326.83;146.30;;;;;;;;;;5003048;28;20192;-51
2022/09/13 03:51:15;;;;;;;334.00;148.93;;;;;;;;;;5010528;28;20177;-51
2022/09/13 03:53:44;;;;;;;345.93;151.03;;;;;;;;;;5009753;28;20664;-50
2022/09/13 03:56:14;;;;;;;359.07;158.03;;;;;;;;;;5008904;28;20196;-51
2022/09/13 03:58:40;;;;;;;331.53;150.90;;;;;;;;;;5007988;28;20181;-53
2022/09/13 04:01:06;;;;;;;338.47;150.23;;;;;;;;;;4993329;28;20586;-50
2022/09/13 04:03:32;;;;;;;350.97;155.10;;;;;;;;;;5005877;28;20197;-49
2022/09/13 04:05:58;;;;;;;331.43;146.60;;;;;;;;;;4999680;28;20660;-51
2022/09/13 04:08:24;;;;;;;337.43;146.40;;;;;;;;;;5008223;28;20279;-50
2022/09/13 04:10:51;;;;;;;360.33;155.87;;;;;;;;;;5009090;28;20696;-50
2022/09/13 04:13:17;;;;;;;337.17;146.47;;;;;;;;;;5006376;28;20248;-50
2022/09/13 04:15:43;;;;;;;341.63;149.47;;;;;;;;;;5009329;28;20225;-50
2022/09/13 04:18:09;;;;;;;349.20;152.03;;;;;;;;;;5005202;28;20177;-50
2022/09/13 04:20:35;;;;;;;352.23;151.23;;;;;;;;;;4993695;28;20487;-50
2022/09/13 04:23:01;;;;;;;338.77;148.37;;;;;;;;;;5000280;28;20258;-50
2022/09/13 04:25:27;;;;;;;358.33;154.07;;;;;;;;;;5003842;28;20614;-50
2022/09/13 04:27:54;;;;;;;314.83;137.23;;;;;;;;;;5001659;28;20219;-50
2022/09/13 04:30:20;;;;;;;357.37;153.90;;;;;;;;;;5012202;28;20208;-50
2022/09/13 04:32:46;;;;;;;345.13;150.00;;;;;;;;;;5011618;28;20280;-51
2022/09/13 04:35:15;;;;;;;338.00;145.90;;;;;;;;;;5003728;28;20288;-50
2022/09/13 04:37:42;;;;;;;366.73;158.00;;;;;;;;;;5009008;28;20537;-50
2022/09/13 04:40:08;;;;;;;351.23;149.50;;;;;;;;;;5001275;28;20213;-50
2022/09/13 04:42:34;;;;;;;341.23;147.13;;;;;;;;;;5002806;28;20173;-50
2022/09/13 04:45:00;;;;;;;350.17;149.47;;;;;;;;;;5004090;28;20208;-50
2022/09/13 04:47:26;;;;;;;333.87;144.23;;;;;;;;;;4995533;28;20178;-50
2022/09/13 04:49:53;;;;;;;372.23;161.30;;;;;;;;;;5002031;28;20188;-50
2022/09/13 04:52:19;;;;;;;352.70;150.37;;;;;;;;;;5003976;28;20200;-50
2022/09/13 04:54:46;;;;;;;351.87;150.07;;;;;;;;;;5009267;28;20691;-50
2022/09/13 04:57:12;;;;;;;341.63;147.73;;;;;;;;;;5008772;28;20669;-50
2022/09/13 04:59:38;;;;;;;317.80;139.63;;;;;;;;;;5009047;28;20181;-50
2022/09/13 05:02:04;;;;;;;361.30;157.47;;;;;;;;;;5008216;28;20204;-50
2022/09/13 05:04:30;;;;;;;355.57;155.60;;;;;;;;;;5004305;28;20197;-51
2022/09/13 05:06:57;;;;;;;343.10;149.70;;;;;;;;;;4989373;28;20177;-51
2022/09/13 05:09:23;;;;;;;338.30;148.70;;;;;;;;;;4990050;28;20597;-51
2022/09/13 05:11:49;;;;;;;353.27;156.87;;;;;;;;;;4989390;28;20661;-51
2022/09/13 05:14:15;;;;;;;353.20;159.67;;;;;;;;;;4988822;28;20255;-51
2022/09/13 05:16:41;;;;;;;334.00;149.07;;;;;;;;;;4987261;28;20181;-51
2022/09/13 05:19:08;;;;;;;344.83;155.03;;;;;;;;;;4989337;28;20177;-51
2022/09/13 05:21:34;;;;;;;328.73;146.40;;;;;;;;;;4989374;28;20169;-51
2022/09/13 05:24:00;;;;;;;332.93;150.23;;;;;;;;;;4995070;28;20193;-51
2022/09/13 05:26:30;;;;;;;359.90;160.13;;;;;;;;;;5012598;28;20254;-51
2022/09/13 05:28:56;;;;;;;312.33;140.93;;;;;;;;;;5013021;28;20169;-51
2022/09/13 05:31:27;;;;;;;314.77;140.77;;;;;;;;;;5012913;28;20187;-51
2022/09/13 05:33:55;;;;;;;357.47;160.03;;;;;;;;;;5012720;28;20211;-51
2022/09/13 05:36:21;;;;;;;336.33;151.53;;;;;;;;;;5012314;28;20264;-51
2022/09/13 05:38:47;;;;;;;327.73;146.23;;;;;;;;;;5012855;28;20307;-51
2022/09/13 05:41:13;;;;;;;340.77;151.10;;;;;;;;;;5012883;28;20173;-51
2022/09/13 05:43:39;;;;;;;343.70;152.13;;;;;;;;;;5011034;28;20177;-51
2022/09/13 05:46:06;;;;;;;337.40;149.90;;;;;;;;;;5012610;28;20576;-51
2022/09/13 05:48:33;;;;;;;388.23;173.00;;;;;;;;;;5009775;28;20177;-52
2022/09/13 05:51:06;;;;;;;372.30;162.10;;;;;;;;;;4982483;28;20329;-52
2022/09/13 05:53:33;;;;;;;451.13;195.37;;;;;;;;;;4985788;28;20236;-52
2022/09/13 05:55:59;;;;;;;398.33;180.77;;;;;;;;;;4994206;28;20189;-52
2022/09/13 05:58:25;;;;;;;430.23;188.17;;;;;;;;;;4990525;28;20185;-52
2022/09/13 06:00:54;;;;;;;427.47;187.70;;;;;;;;;;4991174;28;20991;-52
2022/09/13 06:03:21;;;;;;;377.20;163.87;;;;;;;;;;4987960;28;20212;-52
2022/09/13 06:05:47;;;;;;;371.57;158.70;;;;;;;;;;4991549;28;20335;-52
2022/09/13 06:08:13;;;;;;;439.33;190.37;;;;;;;;;;4989955;28;20230;-52
2022/09/13 06:10:39;;;;;;;466.57;200.17;;;;;;;;;;4973581;28;20969;-52
2022/09/13 06:13:05;;;;;;;380.47;167.37;;;;;;;;;;4987571;28;20288;-52
2022/09/13 06:15:30;;;;;;;471.47;212.80;;;;;;;;;;4988366;28;21083;-52
2022/09/13 06:17:57;;;;;;;409.00;180.67;;;;;;;;;;4983918;28;20316;-52
2022/09/13 06:20:23;;;;;;;438.70;194.60;;;;;;;;;;4955420;28;20264;-53
2022/09/13 06:22:49;;;;;;;421.67;187.93;;;;;;;;;;4987880;28;20915;-53
2022/09/13 06:25:15;;;;;;;417.33;174.57;;;;;;;;;;4982812;28;20588;-53
2022/09/13 06:27:42;;;;;;;383.73;165.53;;;;;;;;;;4991235;28;20689;-52
2022/09/13 06:30:08;;;;;;;372.97;163.50;;;;;;;;;;4989327;28;20724;-52
2022/09/13 06:32:36;;;;;;;361.80;160.80;;;;;;;;;;4987835;28;20219;-53
2022/09/13 06:35:02;;;;;;;428.23;185.27;;;;;;;;;;4991401;28;20228;-52
2022/09/13 06:37:28;;;;;;;412.90;174.17;;;;;;;;;;4992355;28;20185;-52
2022/09/13 06:39:54;;;;;;;373.27;158.73;;;;;;;;;;4993453;28;20751;-52
2022/09/13 06:42:19;;;;;;;419.20;177.00;;;;;;;;;;4998091;28;20186;-52
2022/09/13 06:44:47;;;;;;;373.23;170.90;;;;;;;;;;4993497;28;20226;-51
2022/09/13 06:47:13;;;;;;;449.27;203.57;;;;;;;;;;4980018;28;20240;-51
2022/09/13 06:49:39;;;;;;;408.43;189.57;;;;;;;;;;4988877;28;20275;-51
2022/09/13 06:52:05;;;;;;;440.63;202.30;;;;;;;;;;4988083;28;20210;-52
2022/09/13 06:54:31;;;;;;;446.70;205.33;;;;;;;;;;4987938;28;20570;-52
2022/09/13 06:56:57;;;;;;;449.80;206.87;;;;;;;;;;4985449;28;20200;-52
2022/09/13 06:59:23;;;;;;;449.03;210.17;;;;;;;;;;4979263;28;20189;-52
2022/09/13 07:01:48;;;;;;;368.10;167.23;;;;;;;;;;4994555;28;20201;-52
2022/09/13 07:04:15;;;;;;;445.30;203.23;;;;;;;;;;4981890;28;20569;-52
2022/09/13 07:06:42;;;;;;;425.87;196.90;;;;;;;;;;4988066;28;20197;-52
2022/09/13 07:09:11;;;;;;;401.10;175.53;;;;;;;;;;4981756;28;20192;-52
2022/09/13 07:11:38;;;;;;;380.03;172.03;;;;;;;;;;4992751;28;20223;-52
2022/09/13 07:14:05;;;;;;;372.53;170.03;;;;;;;;;;4984134;28;20212;-52
2022/09/13 07:16:32;;;;;;;389.67;171.00;;;;;;;;;;4985275;28;20194;-52
2022/09/13 07:19:04;;;;;;;399.47;169.37;;;;;;;;;;4992261;28;20189;-52
2022/09/13 07:21:30;;;;;;;397.47;168.00;;;;;;;;;;4996728;28;20189;-51
2022/09/13 07:23:56;;;;;;;470.73;190.90;;;;;;;;;;4983666;28;22373;-51
2022/09/13 07:26:22;;;;;;;397.77;171.33;;;;;;;;;;4988443;28;20610;-51
2022/09/13 07:28:50;;;;;;;482.63;202.30;;;;;;;;;;4992207;28;20186;-51
2022/09/13 07:31:23;;;;;;;357.03;164.53;;;;;;;;;;4988017;28;20193;-51
2022/09/13 07:33:57;;;;;;;383.23;180.33;;;;;;;;;;4989446;28;20210;-51
2022/09/13 07:36:23;;;;;;;400.80;177.20;;;;;;;;;;4990467;28;20439;-52
2022/09/13 07:38:50;;;;;;;408.87;188.00;;;;;;;;;;4995560;28;20176;-51
2022/09/13 07:41:20;;;;;;;406.70;181.53;;;;;;;;;;4984296;28;20189;-51
2022/09/13 07:43:46;;;;;;;387.00;176.13;;;;;;;;;;4990662;28;20217;-52
2022/09/13 07:46:17;;;;;;;462.43;203.77;;;;;;;;;;4988114;28;20263;-51
2022/09/13 07:48:44;;;;;;;380.03;173.73;;;;;;;;;;4990599;28;20200;-51
2022/09/13 07:51:19;;;;;;;412.67;184.57;;;;;;;;;;4982200;28;20650;-51
2022/09/13 07:53:45;;;;;;;428.67;194.03;;;;;;;;;;4975325;28;20231;-52
2022/09/13 07:56:13;;;;;;;425.43;195.87;;;;;;;;;;4993637;28;20447;-51
2022/09/13 07:58:40;;;;;;;416.20;184.80;;;;;;;;;;4988955;28;20188;-52
2022/09/13 08:01:08;;;;;;;374.13;173.13;;;;;;;;;;4997600;28;20663;-52
2022/09/13 08:03:34;;;;;;;424.20;186.67;;;;;;;;;;4993068;28;20189;-51
2022/09/13 08:06:00;;;;;;;413.53;207.23;;;;;;;;;;4990699;28;20188;-51
2022/09/13 08:08:27;;;;;;;399.83;176.67;;;;;;;;;;4995416;28;20243;-52
2022/09/13 08:10:53;;;;;;;397.97;173.93;;;;;;;;;;4997051;28;20192;-52
2022/09/13 08:13:19;;;;;;;445.30;192.53;;;;;;;;;;4986580;28;20205;-52
2022/09/13 08:15:45;;;;;;;416.80;187.87;;;;;;;;;;4992866;28;20211;-51
2022/09/13 08:18:11;;;;;;;445.37;200.60;;;;;;;;;;4986103;28;20625;-52
2022/09/13 08:20:37;;;;;;;391.30;178.80;;;;;;;;;;4993525;28;20186;-52
2022/09/13 08:23:04;;;;;;;379.90;174.47;;;;;;;;;;4990424;28;20216;-51
2022/09/13 08:25:33;;;;;;;385.00;180.10;;;;;;;;;;4992291;28;20231;-51
2022/09/13 08:27:59;;;;;;;435.40;197.67;;;;;;;;;;4989686;28;20200;-52
2022/09/13 08:30:31;;;;;;;428.03;196.50;;;;;;;;;;4987251;28;20182;-52
2022/09/13 08:32:57;;;;;;;404.57;185.27;;;;;;;;;;4989996;28;20669;-51
2022/09/13 08:35:23;;;;;;;448.23;193.23;;;;;;;;;;4980895;28;20738;-52
2022/09/13 08:37:49;;;;;;;383.63;172.47;;;;;;;;;;4994746;28;20623;-51
2022/09/13 08:40:15;;;;;;;400.63;173.53;;;;;;;;;;4974241;28;20216;-52
2022/09/13 08:42:58;;;;;;;441.57;190.20;;;;;;;;;;4991821;28;21489;-52
2022/09/13 08:45:24;;;;;;;444.10;204.13;;;;;;;;;;4989490;28;20200;-51
2022/09/13 08:47:55;;;;;;;382.30;175.07;;;;;;;;;;4984050;28;20181;-51
2022/09/13 08:50:32;;;;;;;443.87;198.13;;;;;;;;;;4985859;28;20673;-52
2022/09/13 08:53:10;;;;;;;421.77;188.70;;;;;;;;;;4989271;28;20242;-52
2022/09/13 08:56:09;;;;;;;424.97;192.93;;;;;;;;;;4990590;28;20902;-51
2022/09/13 08:58:38;;;;;;;385.60;176.13;;;;;;;;;;4948209;28;20216;-51
2022/09/13 09:01:08;;;;;;;356.00;163.17;;;;;;;;;;4987131;28;20186;-52
2022/09/13 09:03:36;;;;;;;430.53;197.13;;;;;;;;;;4982458;23;20233;-52
2022/09/13 09:06:02;;;;;;;420.30;193.23;;;;;;;;;;4960551;28;20195;-52
2022/09/13 09:08:45;;;;;;;425.00;194.60;;;;;;;;;;4958269;28;20194;-52
2022/09/13 09:14:05;;;;;;;361.40;178.43;;;;;;;;;;5019930;28;20230;-67
2022/09/13 09:16:37;;;;;;;585.17;278.83;;;;;;;;;;5013760;23;20265;-52
2022/09/13 09:19:15;;;;;;;472.40;212.40;;;;;;;;;;4996497;28;20195;-52
2022/09/13 09:21:42;;;;;;;385.73;171.53;;;;;;;;;;4997795;28;20269;-52
2022/09/13 09:24:11;;;;;;;368.43;173.33;;;;;;;;;;5003651;28;20213;-52
2022/09/13 09:26:37;;;;;;;375.83;172.80;;;;;;;;;;5001953;28;20197;-52
2022/09/13 09:29:18;;;;;;;356.90;167.30;;;;;;;;;;5010491;28;20315;-52
2022/09/13 09:31:48;;;;;;;576.30;243.20;;;;;;;;;;4986571;28;27552;-51
2022/09/13 09:34:41;;;;;;;377.30;177.10;;;;;;;;;;5006640;28;20644;-53
2022/09/13 09:37:23;;;;;;;421.30;196.63;;;;;;;;;;5007771;28;20177;-53
2022/09/13 09:39:50;;;;;;;373.87;178.20;;;;;;;;;;5010460;28;20852;-53
2022/09/13 09:42:18;;;;;;;410.23;185.90;;;;;;;;;;5008237;28;20188;-52
2022/09/13 09:44:46;;;;;;;433.37;209.63;;;;;;;;;;5004417;28;20205;-53
2022/09/13 09:47:17;;;;;;;381.77;188.13;;;;;;;;;;5012260;28;20192;-53
2022/09/13 09:52:39;;;;;;;419.73;207.73;;;;;;;;;;5006560;28;20235;-52
2022/09/13 09:55:14;;;;;;;408.67;193.37;;;;;;;;;;5007837;28;20787;-53
2022/09/13 09:57:54;;;;;;;504.17;228.67;;;;;;;;;;5000653;28;20176;-53
2022/09/13 10:00:22;;;;;;;425.20;200.07;;;;;;;;;;4993471;28;20199;-52
2022/09/13 10:02:48;;;;;;;415.43;196.20;;;;;;;;;;4994578;28;20621;-52
2022/09/13 10:05:18;;;;;;;424.50;214.37;;;;;;;;;;5000097;28;22785;-53
2022/09/13 10:07:53;;;;;;;445.77;210.70;;;;;;;;;;5000665;28;21430;-52
2022/09/13 10:10:24;;;;;;;430.37;209.70;;;;;;;;;;5002930;28;20657;-52
2022/09/13 10:12:52;;;;;;;384.43;192.20;;;;;;;;;;4997758;28;25337;-52
2022/09/13 10:15:19;;;;;;;395.87;200.10;;;;;;;;;;5018685;28;20208;-52
2022/09/13 10:18:04;;;;;;;397.83;197.87;;;;;;;;;;5016563;28;20215;-53
2022/09/13 10:20:31;;;;;;;431.93;212.77;;;;;;;;;;5003170;28;20176;-53
2022/09/13 10:23:09;;;;;;;373.03;189.40;;;;;;;;;;5016795;28;20184;-53
2022/09/13 10:25:36;;;;;;;400.07;201.27;;;;;;;;;;5016080;28;20611;-53
2022/09/13 10:28:04;;;;;;;376.17;196.33;;;;;;;;;;5018119;28;20468;-53
2022/09/13 10:30:30;;;;;;;485.77;225.10;;;;;;;;;;5007750;28;20271;-52
2022/09/13 10:32:56;;;;;;;373.30;189.90;;;;;;;;;;5015384;28;20292;-52
2022/09/13 10:35:29;;;;;;;375.27;191.17;;;;;;;;;;5015362;28;20205;-52
2022/09/13 10:37:55;;;;;;;386.67;193.77;;;;;;;;;;5013499;28;20612;-53
2022/09/13 10:40:27;;;;;;;399.43;198.13;;;;;;;;;;5020255;28;20184;-53
2022/09/13 10:42:54;;;;;;;392.77;203.37;;;;;;;;;;5011347;28;20649;-52
2022/09/13 10:45:23;;;;;;;375.93;201.40;;;;;;;;;;5019799;28;20292;-53
2022/09/13 10:47:50;;;;;;;375.03;199.97;;;;;;;;;;5013195;28;20184;-53
2022/09/13 10:50:26;;;;;;;386.73;200.93;;;;;;;;;;5015278;28;20188;-53
2022/09/13 10:52:53;;;;;;;442.30;208.53;;;;;;;;;;4999825;28;20862;-52
2022/09/13 10:55:19;;;;;;;387.17;196.00;;;;;;;;;;5016638;28;20262;-52
2022/09/13 10:57:46;;;;;;;408.10;215.53;;;;;;;;;;5018320;28;25072;-52
2022/09/13 11:00:12;;;;;;;411.20;218.10;;;;;;;;;;5013591;28;20280;-53
2022/09/13 11:02:53;;;;;;;418.43;224.90;;;;;;;;;;5019390;28;20215;-52
2022/09/13 11:05:19;;;;;;;451.20;237.93;;;;;;;;;;5005641;28;20215;-52
2022/09/13 11:08:04;;;;;;;422.37;224.07;;;;;;;;;;5011131;28;20548;-53
2022/09/13 11:10:48;;;;;;;365.05;197.65;;;;;;;;;;5015766;28;20180;-52
2022/09/13 11:13:20;;;;;;;381.70;207.40;;;;;;;;;;5012109;28;20204;-52
2022/09/13 11:15:58;;;;;;;396.60;214.90;;;;;;;;;;5009463;28;20223;-53
2022/09/13 11:18:53;;;;;;;411.13;217.10;;;;;;;;;;5009994;28;20271;-52
2022/09/13 11:21:37;;;;;;;470.33;258.97;;;;;;;;;;4985930;28;20193;-52
2022/09/13 11:24:03;;;;;;;419.30;231.13;;;;;;;;;;5009861;28;20200;-53
2022/09/13 11:26:29;;;;;;;411.40;227.60;;;;;;;;;;5008658;28;20215;-53
2022/09/13 11:29:04;;;;;;;437.67;241.37;;;;;;;;;;5010958;28;20664;-52
2022/09/13 11:31:50;;;;;;;404.20;232.37;;;;;;;;;;5012202;28;20271;-53
2022/09/13 11:34:25;;;;;;;439.50;245.87;;;;;;;;;;5010936;28;20208;-53
2022/09/13 11:36:51;;;;;;;422.63;245.07;;;;;;;;;;5010992;28;20636;-53
2022/09/13 11:39:22;;;;;;;521.07;291.30;;;;;;;;;;5012816;28;20184;-53
2022/09/13 11:41:54;;;;;;;387.67;224.40;;;;;;;;;;5014142;28;20184;-53
2022/09/13 11:44:29;;;;;;;404.77;234.27;;;;;;;;;;5006815;28;20281;-53
2022/09/13 11:47:02;;;;;;;381.03;225.67;;;;;;;;;;5005481;28;20725;-53
2022/09/13 11:49:33;;;;;;;381.43;225.30;;;;;;;;;;5006436;28;20192;-53
2022/09/13 11:52:08;;;;;;;410.90;240.25;;;;;;;;;;5004706;28;20236;-53
2022/09/13 11:54:43;;;;;;;379.52;226.02;;;;;;;;;;5011207;28;20410;-53
2022/09/13 11:57:13;;;;;;;422.02;244.27;;;;;;;;;;5003181;28;20279;-53
2022/09/13 11:59:57;;;;;;;436.08;256.00;;;;;;;;;;5001459;28;20272;-53
2022/09/13 12:02:27;;;;;;;379.70;220.05;;;;;;;;;;5005366;28;20677;-53
2022/09/13 12:05:00;;;;;;;523.60;284.38;;;;;;;;;;4975500;28;20205;-53
2022/09/13 12:07:35;;;;;;;510.37;278.27;;;;;;;;;;4982970;28;20189;-53
2022/09/13 12:10:06;;;;;;;380.30;217.32;;;;;;;;;;5000352;28;20200;-53
2022/09/13 12:12:34;;;;;;;421.23;237.60;;;;;;;;;;5005214;28;20284;-53
2022/09/13 12:15:02;;;;;;;423.33;236.47;;;;;;;;;;5008768;28;20204;-53
2022/09/13 12:17:35;;;;;;;457.43;255.33;;;;;;;;;;5002911;28;20185;-53
2022/09/13 12:20:02;;;;;;;448.43;246.57;;;;;;;;;;5003244;28;20584;-53
2022/09/13 12:22:32;;;;;;;379.63;210.00;;;;;;;;;;5004415;28;20287;-53
2022/09/13 12:24:59;;;;;;;418.90;229.17;;;;;;;;;;4993791;28;20568;-53
2022/09/13 12:27:31;;;;;;;367.53;206.80;;;;;;;;;;5002222;28;20194;-53
2022/09/13 12:30:04;;;;;;;403.83;222.43;;;;;;;;;;5010601;28;20304;-53
2022/09/13 12:32:30;;;;;;;396.73;218.40;;;;;;;;;;5004598;28;20262;-53
2022/09/13 12:34:56;;;;;;;478.50;253.07;;;;;;;;;;5000141;28;20479;-53
2022/09/13 12:37:22;;;;;;;465.47;251.13;;;;;;;;;;5008971;28;20187;-53
2022/09/13 12:39:56;;;;;;;468.33;248.93;;;;;;;;;;4998204;28;20176;-53
2022/09/13 12:42:32;;;;;;;435.70;233.97;;;;;;;;;;5003404;28;20268;-53
2022/09/13 12:44:58;;;;;;;454.07;240.40;;;;;;;;;;4992149;28;20211;-53
2022/09/13 12:47:43;;;;;;;371.90;204.67;;;;;;;;;;4992981;28;20193;-53
2022/09/13 12:50:27;;;;;;;384.67;210.37;;;;;;;;;;5008012;28;20180;-53
2022/09/13 12:53:01;;;;;;;396.33;217.33;;;;;;;;;;5004545;28;20208;-53
2022/09/13 12:55:34;;;;;;;433.83;224.90;;;;;;;;;;5006740;28;20604;-53
2022/09/13 12:58:22;;;;;;;401.90;218.03;;;;;;;;;;5005130;28;20189;-53
2022/09/13 13:00:57;;;;;;;442.27;230.47;;;;;;;;;;5000621;28;20242;-53
2022/09/13 13:03:26;;;;;;;510.57;264.53;;;;;;;;;;4994737;28;20532;-53
2022/09/13 13:05:54;;;;;;;436.43;230.93;;;;;;;;;;5003423;28;20185;-53
2022/09/13 13:08:20;;;;;;;379.90;202.30;;;;;;;;;;5004974;28;20236;-53
2022/09/13 13:10:59;;;;;;;440.83;224.03;;;;;;;;;;4999037;28;20187;-53
2022/09/13 13:13:33;;;;;;;432.30;226.97;;;;;;;;;;4997792;28;20937;-52
2022/09/13 13:16:01;;;;;;;355.13;196.20;;;;;;;;;;4996550;28;20196;-53
2022/09/13 13:18:27;;;;;;;481.00;247.60;;;;;;;;;;4997311;28;20192;-53
2022/09/13 13:20:53;;;;;;;438.83;231.93;;;;;;;;;;4996758;28;20206;-53
2022/09/13 13:23:22;;;;;;;429.17;224.30;;;;;;;;;;4997526;28;20268;-53
2022/09/13 13:25:59;;;;;;;434.37;229.53;;;;;;;;;;5004392;28;20204;-53
2022/09/13 13:28:46;;;;;;;549.40;272.50;;;;;;;;;;4994601;28;20188;-53
2022/09/13 13:31:22;;;;;;;437.43;224.30;;;;;;;;;;5004312;28;20192;-53
2022/09/13 13:34:00;;;;;;;504.07;258.97;;;;;;;;;;4997378;28;21138;-53
2022/09/13 13:36:43;;;;;;;444.87;228.80;;;;;;;;;;5000068;28;20210;-53
2022/09/13 13:39:13;;;;;;;376.10;196.47;;;;;;;;;;5005119;28;20428;-53
2022/09/13 13:41:42;;;;;;;473.50;245.97;;;;;;;;;;4998340;28;20184;-53
2022/09/13 13:44:16;;;;;;;466.63;242.60;;;;;;;;;;4999512;28;20203;-53
2022/09/13 13:46:42;;;;;;;345.00;184.33;;;;;;;;;;5008795;28;20189;-53
2022/09/13 13:49:31;;;;;;;454.83;231.63;;;;;;;;;;5000280;28;22502;-53
2022/09/13 13:52:06;;;;;;;422.07;221.17;;;;;;;;;;5000232;28;20353;-53
2022/09/13 13:54:42;;;;;;;407.47;219.00;;;;;;;;;;5006987;28;20603;-53
2022/09/13 13:57:19;;;;;;;386.80;207.20;;;;;;;;;;5003147;28;20175;-53
2022/09/13 13:59:47;;;;;;;404.97;218.17;;;;;;;;;;5007476;28;20687;-53
2022/09/13 14:02:13;;;;;;;398.67;209.10;;;;;;;;;;5003906;28;20657;-53
2022/09/13 14:04:48;;;;;;;420.43;223.83;;;;;;;;;;5001145;28;20415;-53
2022/09/13 14:07:17;;;;;;;517.03;265.70;;;;;;;;;;4998274;28;20215;-53
2022/09/13 14:09:51;;;;;;;397.00;208.93;;;;;;;;;;5010289;28;20595;-53
2022/09/13 14:12:24;;;;;;;416.83;222.60;;;;;;;;;;4994492;28;20208;-53
2022/09/13 14:15:02;;;;;;;394.53;209.63;;;;;;;;;;5005424;28;20649;-53